Time;durP1;ratioP1;P1;durP2;ratioP2;P2;SDS_P1;SDS_P2;PMS_P1;PMS_P2;Temp;Humidity;BMP_temperature;BMP_pressure;BME280_temperature;BME280_humidity;BME280_pressure;Samples;Min_cycle;Max_cycle;Signal;HPM_P1;HPM_P2
2021/10/09 00:02:03;;;;;;;0.10;0.10;;;;;;;;;;5046113;28;20269;-74
2021/10/09 00:04:29;;;;;;;0.20;0.20;;;;;;;;;;5045515;28;20233;-73
2021/10/09 00:06:55;;;;;;;0.10;0.10;;;;;;;;;;5045571;28;20549;-74
2021/10/09 00:09:22;;;;;;;0.10;0.10;;;;;;;;;;5045712;28;20204;-73
2021/10/09 00:11:48;;;;;;;0.10;0.10;;;;;;;;;;5061621;28;20483;-74
2021/10/09 00:14:14;;;;;;;0.10;0.10;;;;;;;;;;5065116;28;20231;-74
2021/10/09 00:16:42;;;;;;;0.10;0.10;;;;;;;;;;5065156;28;20229;-75
2021/10/09 00:19:10;;;;;;;0.10;0.10;;;;;;;;;;5065526;28;20227;-75
2021/10/09 00:21:43;;;;;;;0.10;0.10;;;;;;;;;;5065190;28;20218;-74
2021/10/09 00:24:09;;;;;;;0.10;0.10;;;;;;;;;;5065957;28;20217;-74
2021/10/09 00:26:35;;;;;;;0.10;0.10;;;;;;;;;;5059962;28;20398;-73
2021/10/09 00:29:02;;;;;;;0.10;0.10;;;;;;;;;;5064889;28;20204;-73
2021/10/09 00:31:28;;;;;;;0.10;0.10;;;;;;;;;;5064985;28;20484;-74
2021/10/09 00:33:54;;;;;;;0.10;0.10;;;;;;;;;;5065160;28;20273;-74
2021/10/09 00:36:22;;;;;;;0.10;0.10;;;;;;;;;;5065315;28;20415;-74
2021/10/09 00:38:48;;;;;;;0.10;0.10;;;;;;;;;;5065345;28;20206;-75
2021/10/09 00:41:15;;;;;;;0.10;0.10;;;;;;;;;;5064876;28;20207;-75
2021/10/09 00:43:41;;;;;;;0.20;0.20;;;;;;;;;;5063114;28;20203;-74
2021/10/09 00:46:07;;;;;;;0.10;0.10;;;;;;;;;;5065001;28;20203;-73
2021/10/09 00:48:35;;;;;;;0.10;0.10;;;;;;;;;;5065166;28;20217;-73
2021/10/09 00:51:03;;;;;;;0.10;0.10;;;;;;;;;;5051176;28;20201;-74
2021/10/09 00:53:31;;;;;;;0.10;0.10;;;;;;;;;;5065113;28;20226;-73
2021/10/09 00:55:57;;;;;;;0.10;0.10;;;;;;;;;;5064862;28;20450;-74
2021/10/09 00:58:24;;;;;;;0.10;0.10;;;;;;;;;;5063305;28;20206;-72
2021/10/09 01:00:50;;;;;;;0.10;0.10;;;;;;;;;;5064904;28;20418;-73
2021/10/09 01:03:17;;;;;;;0.10;0.10;;;;;;;;;;5064520;28;20371;-73
2021/10/09 01:05:43;;;;;;;0.10;0.10;;;;;;;;;;5064526;28;20248;-75
2021/10/09 01:08:10;;;;;;;0.10;0.10;;;;;;;;;;5064645;28;20212;-75
2021/10/09 01:10:37;;;;;;;0.10;0.10;;;;;;;;;;5064776;28;20548;-74
2021/10/09 01:13:05;;;;;;;0.10;0.10;;;;;;;;;;5064204;28;20340;-72
2021/10/09 01:15:32;;;;;;;0.13;0.13;;;;;;;;;;5063385;28;20567;-74
2021/10/09 01:18:06;;;;;;;0.10;0.10;;;;;;;;;;5052025;28;20480;-74
2021/10/09 01:20:43;;;;;;;0.10;0.10;;;;;;;;;;5054863;28;20202;-73
2021/10/09 01:23:10;;;;;;;0.10;0.10;;;;;;;;;;5064490;28;20197;-74
2021/10/09 01:25:36;;;;;;;0.10;0.10;;;;;;;;;;5064552;28;20428;-74
2021/10/09 01:28:02;;;;;;;0.10;0.10;;;;;;;;;;5064089;28;20214;-73
2021/10/09 01:30:28;;;;;;;0.10;0.10;;;;;;;;;;5063925;28;20254;-74
2021/10/09 01:32:55;;;;;;;0.10;0.10;;;;;;;;;;5064276;28;20390;-72
2021/10/09 01:35:21;;;;;;;0.10;0.10;;;;;;;;;;5064218;28;20238;-72
2021/10/09 01:37:48;;;;;;;0.10;0.10;;;;;;;;;;5064298;28;20204;-74
2021/10/09 01:40:15;;;;;;;0.10;0.10;;;;;;;;;;5063805;28;20488;-74
2021/10/09 01:42:41;;;;;;;0.20;0.20;;;;;;;;;;5064113;28;20205;-73
2021/10/09 01:45:08;;;;;;;0.20;0.20;;;;;;;;;;5063847;28;20238;-74
2021/10/09 01:47:38;;;;;;;0.10;0.10;;;;;;;;;;5064014;28;20236;-74
2021/10/09 01:50:05;;;;;;;0.10;0.10;;;;;;;;;;5063925;28;20397;-73
2021/10/09 01:52:31;;;;;;;0.10;0.10;;;;;;;;;;5063908;28;20550;-74
2021/10/09 01:54:59;;;;;;;0.10;0.10;;;;;;;;;;5063375;28;20223;-73
2021/10/09 01:57:25;;;;;;;0.10;0.10;;;;;;;;;;5063803;28;20211;-74
2021/10/09 01:59:51;;;;;;;0.20;0.20;;;;;;;;;;5064133;28;20429;-74
2021/10/09 02:02:17;;;;;;;0.10;0.10;;;;;;;;;;5051049;28;20412;-73
2021/10/09 02:04:44;;;;;;;0.10;0.10;;;;;;;;;;5054703;28;20466;-73
2021/10/09 02:07:15;;;;;;;1.80;1.80;;;;;;;;;;5057304;28;20201;-72
2021/10/09 02:09:41;;;;;;;0.10;0.10;;;;;;;;;;5047607;28;20198;-74
2021/10/09 02:12:09;;;;;;;0.20;0.20;;;;;;;;;;5057229;28;20514;-72
2021/10/09 02:14:40;;;;;;;0.10;0.10;;;;;;;;;;5057341;28;20230;-74
2021/10/09 02:17:24;;;;;;;0.10;0.10;;;;;;;;;;5043699;28;20510;-73
2021/10/09 02:25:33;;;;;;;0.10;0.10;;;;;;;;;;5050885;28;20200;-74
2021/10/09 02:28:01;;;;;;;0.10;0.10;;;;;;;;;;5062987;28;20200;-75
2021/10/09 02:30:27;;;;;;;0.10;0.10;;;;;;;;;;5063452;28;20207;-75
2021/10/09 02:32:53;;;;;;;0.10;0.10;;;;;;;;;;5063372;28;20203;-75
2021/10/09 02:35:20;;;;;;;0.10;0.10;;;;;;;;;;5063010;28;20229;-74
2021/10/09 02:37:46;;;;;;;0.10;0.10;;;;;;;;;;5062846;28;20288;-74
2021/10/09 02:40:12;;;;;;;0.10;0.10;;;;;;;;;;5062841;28;20239;-74
2021/10/09 02:42:39;;;;;;;0.10;0.10;;;;;;;;;;5062928;28;20225;-73
2021/10/09 02:45:06;;;;;;;0.10;0.10;;;;;;;;;;5062994;28;20201;-72
2021/10/09 02:47:33;;;;;;;0.10;0.10;;;;;;;;;;5063137;28;20251;-74
2021/10/09 02:49:59;;;;;;;0.10;0.10;;;;;;;;;;5063007;28;20206;-72
2021/10/09 02:52:25;;;;;;;0.10;0.10;;;;;;;;;;5063061;28;20227;-73
2021/10/09 02:54:52;;;;;;;0.10;0.10;;;;;;;;;;5062998;28;20390;-73
2021/10/09 02:57:18;;;;;;;0.10;0.10;;;;;;;;;;5062916;28;20203;-74
2021/10/09 02:59:44;;;;;;;0.10;0.10;;;;;;;;;;5063122;28;20526;-74
2021/10/09 03:02:11;;;;;;;0.10;0.10;;;;;;;;;;5062699;28;20251;-75
2021/10/09 03:04:38;;;;;;;0.20;0.20;;;;;;;;;;5062665;28;20233;-75
2021/10/09 03:07:04;;;;;;;0.10;0.10;;;;;;;;;;5066604;28;20208;-73
2021/10/09 03:09:30;;;;;;;0.10;0.10;;;;;;;;;;5066918;28;20334;-74
2021/10/09 03:11:56;;;;;;;0.10;0.10;;;;;;;;;;5067055;28;20205;-74
2021/10/09 03:14:24;;;;;;;0.17;0.17;;;;;;;;;;5066781;28;20519;-73
2021/10/09 03:16:50;;;;;;;0.10;0.10;;;;;;;;;;5065543;28;20271;-74
2021/10/09 03:19:18;;;;;;;0.10;0.10;;;;;;;;;;5058206;28;20255;-74
2021/10/09 03:21:44;;;;;;;0.20;0.20;;;;;;;;;;5052916;28;20208;-74
2021/10/09 03:24:10;;;;;;;0.10;0.10;;;;;;;;;;5066964;28;20202;-73
2021/10/09 03:26:36;;;;;;;0.10;0.10;;;;;;;;;;5066283;28;20223;-74
2021/10/09 03:29:03;;;;;;;0.10;0.10;;;;;;;;;;5066489;28;20229;-73
2021/10/09 03:31:29;;;;;;;0.10;0.10;;;;;;;;;;5066382;28;20491;-73
2021/10/09 03:33:55;;;;;;;0.10;0.10;;;;;;;;;;5060972;28;20233;-73
2021/10/09 03:36:23;;;;;;;0.10;0.10;;;;;;;;;;5066355;28;20302;-73
2021/10/09 03:38:49;;;;;;;0.10;0.10;;;;;;;;;;5066166;28;20250;-74
2021/10/09 03:41:16;;;;;;;0.93;0.77;;;;;;;;;;5066486;28;20205;-74
2021/10/09 03:43:44;;;;;;;0.20;0.20;;;;;;;;;;5066018;28;20205;-73
2021/10/09 03:46:14;;;;;;;0.20;0.20;;;;;;;;;;5066244;28;20271;-74
2021/10/09 03:48:52;;;;;;;0.23;0.23;;;;;;;;;;5066207;28;20229;-74
2021/10/09 03:54:03;;;;;;;0.10;0.10;;;;;;;;;;5065823;28;20513;-74
2021/10/09 03:56:29;;;;;;;0.10;0.10;;;;;;;;;;5065704;28;20220;-74
2021/10/09 03:58:56;;;;;;;0.10;0.10;;;;;;;;;;5059464;28;20432;-73
2021/10/09 04:01:22;;;;;;;0.20;0.20;;;;;;;;;;5045450;28;20503;-73
2021/10/09 04:03:48;;;;;;;0.20;0.20;;;;;;;;;;5045541;28;20244;-74
2021/10/09 04:06:14;;;;;;;0.20;0.20;;;;;;;;;;5053930;28;20530;-75
2021/10/09 04:08:41;;;;;;;0.20;0.20;;;;;;;;;;5051314;28;20208;-73
2021/10/09 04:11:08;;;;;;;0.10;0.10;;;;;;;;;;5045884;28;20240;-74
2021/10/09 04:13:34;;;;;;;0.10;0.10;;;;;;;;;;5058583;28;20495;-75
2021/10/09 04:16:01;;;;;;;0.33;0.33;;;;;;;;;;5046813;28;20290;-73
2021/10/09 04:18:27;;;;;;;0.10;0.10;;;;;;;;;;5045788;28;20207;-75
2021/10/09 04:20:53;;;;;;;0.20;0.20;;;;;;;;;;5058911;28;20513;-74
2021/10/09 04:23:19;;;;;;;0.20;0.20;;;;;;;;;;5065150;28;20212;-74
2021/10/09 04:25:47;;;;;;;0.20;0.20;;;;;;;;;;5065299;28;20203;-74
2021/10/09 04:28:14;;;;;;;0.10;0.10;;;;;;;;;;5065476;28;20200;-72
2021/10/09 04:30:41;;;;;;;0.10;0.10;;;;;;;;;;5065596;28;20433;-74
2021/10/09 04:33:07;;;;;;;0.10;0.10;;;;;;;;;;5065120;28;20212;-74
2021/10/09 04:35:33;;;;;;;26.57;13.40;;;;;;;;;;5065107;28;20330;-73
2021/10/09 04:38:04;;;;;;;0.83;0.83;;;;;;;;;;5065518;28;20418;-73
2021/10/09 04:40:31;;;;;;;0.10;0.10;;;;;;;;;;5051875;28;20397;-74
2021/10/09 04:42:57;;;;;;;0.20;0.20;;;;;;;;;;5065080;28;20204;-75
2021/10/09 04:45:24;;;;;;;0.10;0.10;;;;;;;;;;5064871;28;20257;-74
2021/10/09 04:47:51;;;;;;;0.10;0.10;;;;;;;;;;5065317;28;20262;-74
2021/10/09 04:50:19;;;;;;;0.10;0.10;;;;;;;;;;5064937;28;20491;-75
2021/10/09 04:52:45;;;;;;;0.10;0.10;;;;;;;;;;5065192;28;20207;-75
2021/10/09 04:55:13;;;;;;;0.10;0.10;;;;;;;;;;5064435;28;20219;-74
2021/10/09 04:57:39;;;;;;;0.10;0.10;;;;;;;;;;5064728;28;20230;-74
2021/10/09 05:00:07;;;;;;;0.10;0.10;;;;;;;;;;5064690;28;20249;-74
2021/10/09 05:02:34;;;;;;;0.10;0.10;;;;;;;;;;5050882;28;20215;-73
2021/10/09 05:05:00;;;;;;;11.03;8.30;;;;;;;;;;5064560;28;20231;-75
2021/10/09 05:07:27;;;;;;;0.20;0.20;;;;;;;;;;5064826;28;20200;-74
2021/10/09 05:09:53;;;;;;;0.20;0.20;;;;;;;;;;5064910;28;20229;-74
2021/10/09 05:12:19;;;;;;;0.30;0.30;;;;;;;;;;5064721;28;20211;-73
2021/10/09 05:14:45;;;;;;;0.10;0.10;;;;;;;;;;5064681;28;20262;-75
2021/10/09 05:17:12;;;;;;;0.20;0.20;;;;;;;;;;5064466;28;20210;-72
2021/10/09 05:19:39;;;;;;;0.10;0.10;;;;;;;;;;5064531;28;20254;-73
2021/10/09 05:22:05;;;;;;;0.10;0.10;;;;;;;;;;5064494;28;20203;-73
2021/10/09 05:24:31;;;;;;;0.17;0.17;;;;;;;;;;5064340;28;20526;-72
2021/10/09 05:26:58;;;;;;;0.10;0.10;;;;;;;;;;5064158;28;20200;-73
2021/10/09 05:29:25;;;;;;;0.20;0.20;;;;;;;;;;5063770;28;20442;-73
2021/10/09 05:31:53;;;;;;;0.10;0.10;;;;;;;;;;5064293;28;20494;-73
2021/10/09 05:34:19;;;;;;;0.10;0.10;;;;;;;;;;5063923;28;20204;-73
2021/10/09 05:36:46;;;;;;;0.10;0.10;;;;;;;;;;5063826;28;20232;-73
2021/10/09 05:39:13;;;;;;;0.10;0.10;;;;;;;;;;5064238;28;20203;-74
2021/10/09 05:41:39;;;;;;;0.10;0.10;;;;;;;;;;5063638;28;20211;-74
2021/10/09 05:44:05;;;;;;;0.30;0.30;;;;;;;;;;5063966;28;20394;-73
2021/10/09 05:46:33;;;;;;;0.10;0.10;;;;;;;;;;5064052;28;20199;-72
2021/10/09 05:49:00;;;;;;;0.10;0.10;;;;;;;;;;5064102;28;20223;-74
2021/10/09 05:51:29;;;;;;;0.10;0.10;;;;;;;;;;5057945;28;20213;-72
2021/10/09 05:56:50;;;;;;;0.20;0.20;;;;;;;;;;5063208;28;20250;-74
2021/10/09 06:02:21;;;;;;;0.10;0.10;;;;;;;;;;5052918;28;20563;-73
2021/10/09 06:42:01;;;;;;;0.20;0.20;;;;;;;;;;5058431;28;20226;-73
2021/10/09 06:44:16;;;;;;;0.10;0.10;;;;;;;;;;5062434;28;20233;-73
2021/10/09 06:49:48;;;;;;;0.10;0.10;;;;;;;;;;5042417;28;20202;-74
2021/10/09 07:00:30;;;;;;;0.13;0.13;;;;;;;;;;5056386;28;20222;-73
2021/10/09 07:02:56;;;;;;;0.10;0.10;;;;;;;;;;5049063;28;20248;-72
2021/10/09 07:05:23;;;;;;;0.10;0.10;;;;;;;;;;5053500;28;20409;-74
2021/10/09 07:07:51;;;;;;;0.10;0.10;;;;;;;;;;5052286;28;20211;-72
2021/10/09 07:10:17;;;;;;;0.10;0.10;;;;;;;;;;5059209;28;20206;-74
2021/10/09 07:12:43;;;;;;;0.40;0.40;;;;;;;;;;5052010;28;20246;-73
2021/10/09 07:15:12;;;;;;;0.10;0.10;;;;;;;;;;5050031;28;20225;-73
2021/10/09 07:17:39;;;;;;;0.10;0.10;;;;;;;;;;5049468;28;20249;-73
2021/10/09 07:20:07;;;;;;;0.10;0.10;;;;;;;;;;5047306;28;20350;-74
2021/10/09 07:22:34;;;;;;;0.10;0.10;;;;;;;;;;5048881;28;20395;-72
2021/10/09 07:25:00;;;;;;;0.10;0.10;;;;;;;;;;5044556;28;20205;-73
2021/10/09 07:27:35;;;;;;;0.10;0.10;;;;;;;;;;5043206;28;20249;-73
2021/10/09 07:30:01;;;;;;;0.10;0.10;;;;;;;;;;5048596;28;20202;-73
2021/10/09 07:32:28;;;;;;;3.53;3.33;;;;;;;;;;5044805;28;20514;-73
2021/10/09 07:34:56;;;;;;;0.10;0.10;;;;;;;;;;5049419;28;20201;-72
2021/10/09 07:37:22;;;;;;;0.10;0.10;;;;;;;;;;5049156;28;20255;-73
2021/10/09 07:39:48;;;;;;;0.20;0.20;;;;;;;;;;5045889;28;20407;-73
2021/10/09 07:42:14;;;;;;;0.10;0.10;;;;;;;;;;5054440;28;20287;-73
2021/10/09 07:44:41;;;;;;;0.10;0.10;;;;;;;;;;5043131;28;20207;-74
2021/10/09 07:47:08;;;;;;;0.10;0.10;;;;;;;;;;5050972;28;20387;-73
2021/10/09 07:49:35;;;;;;;0.10;0.10;;;;;;;;;;5044780;28;20429;-73
2021/10/09 07:52:02;;;;;;;0.10;0.10;;;;;;;;;;5046614;28;20205;-74
2021/10/09 07:54:28;;;;;;;0.10;0.10;;;;;;;;;;5050486;28;20436;-74
2021/10/09 07:56:55;;;;;;;0.10;0.10;;;;;;;;;;5056722;28;20243;-73
2021/10/09 07:59:21;;;;;;;0.10;0.10;;;;;;;;;;5049400;28;20201;-73
2021/10/09 08:01:47;;;;;;;0.10;0.10;;;;;;;;;;5045792;28;20242;-74
2021/10/09 08:04:16;;;;;;;0.10;0.10;;;;;;;;;;5045696;28;20244;-73
2021/10/09 08:06:42;;;;;;;0.93;0.93;;;;;;;;;;5045813;28;20200;-76
2021/10/09 08:09:09;;;;;;;0.10;0.10;;;;;;;;;;5047342;28;20249;-73
2021/10/09 08:11:36;;;;;;;0.10;0.10;;;;;;;;;;5049438;28;20210;-73
2021/10/09 08:14:03;;;;;;;0.10;0.10;;;;;;;;;;5047189;28;20255;-73
2021/10/09 08:16:29;;;;;;;0.10;0.10;;;;;;;;;;5050067;28;20231;-73
2021/10/09 08:18:57;;;;;;;0.53;0.53;;;;;;;;;;5054260;28;20388;-74
2021/10/09 08:21:25;;;;;;;0.10;0.10;;;;;;;;;;5058076;28;20386;-73
2021/10/09 08:23:56;;;;;;;0.10;0.10;;;;;;;;;;5054172;28;20266;-72
2021/10/09 08:26:44;;;;;;;0.10;0.10;;;;;;;;;;5059654;28;20196;-74
2021/10/09 08:38:46;;;;;;;0.10;0.10;;;;;;;;;;5050708;28;20449;-64
2021/10/09 08:40:18;;;;;;;0.10;0.10;;;;;;;;;;5046500;28;20397;-64
2021/10/09 08:42:46;;;;;;;0.10;0.10;;;;;;;;;;5055457;28;20431;-64
2021/10/09 08:45:13;;;;;;;0.10;0.10;;;;;;;;;;5053863;28;20262;-64
2021/10/09 08:47:40;;;;;;;0.10;0.10;;;;;;;;;;5057659;28;20200;-64
2021/10/09 08:50:08;;;;;;;0.10;0.10;;;;;;;;;;5052549;28;20200;-64
2021/10/09 08:52:34;;;;;;;0.10;0.10;;;;;;;;;;5054463;28;20215;-63
2021/10/09 08:55:18;;;;;;;0.10;0.10;;;;;;;;;;5051778;28;20201;-64
2021/10/09 08:57:47;;;;;;;5.82;2.70;;;;;;;;;;5048997;28;20202;-63
2021/10/09 09:00:13;;;;;;;0.08;0.08;;;;;;;;;;5061533;28;20209;-65
2021/10/09 09:02:51;;;;;;;0.10;0.10;;;;;;;;;;5055447;28;20204;-64
2021/10/09 09:05:23;;;;;;;0.10;0.10;;;;;;;;;;5050779;28;20236;-75
2021/10/09 09:36:06;;;;;;;0.10;0.10;;;;;;;;;;5049209;28;20397;-75
2021/10/09 09:41:20;;;;;;;0.10;0.10;;;;;;;;;;5045711;28;20254;-65
2021/10/09 09:43:46;;;;;;;0.10;0.10;;;;;;;;;;5051966;28;20435;-72
2021/10/09 09:46:13;;;;;;;0.00;0.00;;;;;;;;;;5053633;28;20386;-67
2021/10/09 09:48:42;;;;;;;0.00;0.00;;;;;;;;;;5050441;28;20368;-71
2021/10/09 09:51:09;;;;;;;0.00;0.00;;;;;;;;;;5054309;28;20231;-72
2021/10/09 09:53:36;;;;;;;0.10;0.10;;;;;;;;;;5051465;28;20207;-71
2021/10/09 09:56:02;;;;;;;0.08;0.08;;;;;;;;;;5050291;28;20507;-72
2021/10/09 09:58:29;;;;;;;0.10;0.10;;;;;;;;;;5047972;28;20211;-61
2021/10/09 10:00:56;;;;;;;0.00;0.00;;;;;;;;;;5053046;28;20251;-67
2021/10/09 10:03:24;;;;;;;0.10;0.10;;;;;;;;;;5062639;28;20546;-66
2021/10/09 10:05:52;;;;;;;0.00;0.00;;;;;;;;;;5061124;28;20203;-65
2021/10/09 10:08:20;;;;;;;0.15;0.15;;;;;;;;;;5057343;28;20211;-65
2021/10/09 10:10:46;;;;;;;0.10;0.10;;;;;;;;;;5062397;28;20206;-66
2021/10/09 10:13:13;;;;;;;0.05;0.05;;;;;;;;;;5054154;28;20203;-67
2021/10/09 10:15:39;;;;;;;0.03;0.03;;;;;;;;;;5048345;28;20212;-66
2021/10/09 10:18:06;;;;;;;0.10;0.10;;;;;;;;;;5060149;28;20209;-68
2021/10/09 10:20:47;;;;;;;0.10;0.10;;;;;;;;;;5055740;28;20265;-68
2021/10/09 10:23:31;;;;;;;0.10;0.10;;;;;;;;;;5048557;28;20204;-67
2021/10/09 10:26:17;;;;;;;0.03;0.03;;;;;;;;;;5057188;28;20215;-68
2021/10/09 10:28:44;;;;;;;0.00;0.00;;;;;;;;;;5047815;28;20238;-68
2021/10/09 10:31:10;;;;;;;0.00;0.00;;;;;;;;;;5049239;28;20265;-68
2021/10/09 10:33:41;;;;;;;0.00;0.00;;;;;;;;;;5051479;28;20533;-67
2021/10/09 10:36:09;;;;;;;0.00;0.00;;;;;;;;;;5047688;28;20218;-68
2021/10/09 10:38:53;;;;;;;0.00;0.00;;;;;;;;;;5052818;28;20210;-70
2021/10/09 10:41:38;;;;;;;0.10;0.10;;;;;;;;;;5053065;28;20226;-68
2021/10/09 10:44:06;;;;;;;0.00;0.00;;;;;;;;;;5048862;28;20340;-68
2021/10/09 10:46:37;;;;;;;0.10;0.10;;;;;;;;;;5048428;28;20448;-67
2021/10/09 10:49:06;;;;;;;1.20;1.20;;;;;;;;;;5060084;28;20516;-69
2021/10/09 10:52:11;;;;;;;0.10;0.10;;;;;;;;;;5053004;28;20441;-69
2021/10/09 10:54:59;;;;;;;0.10;0.10;;;;;;;;;;5038205;28;20205;-68
2021/10/09 10:57:25;;;;;;;0.00;0.00;;;;;;;;;;5049056;28;20234;-68
2021/10/09 10:59:56;;;;;;;0.05;0.05;;;;;;;;;;5047149;28;20209;-67
2021/10/09 11:02:24;;;;;;;0.00;0.00;;;;;;;;;;5060661;28;20507;-67
2021/10/09 11:04:51;;;;;;;0.03;0.03;;;;;;;;;;5060734;28;20294;-68
2021/10/09 11:07:18;;;;;;;0.10;0.10;;;;;;;;;;5052641;28;20204;-68
2021/10/09 11:09:51;;;;;;;0.00;0.00;;;;;;;;;;5052959;28;20426;-68
2021/10/09 11:12:25;;;;;;;0.00;0.00;;;;;;;;;;5053003;28;20200;-68
2021/10/09 11:14:51;;;;;;;0.00;0.00;;;;;;;;;;5047156;28;20208;-68
2021/10/09 11:17:18;;;;;;;0.00;0.00;;;;;;;;;;5049024;28;20542;-69
2021/10/09 11:19:46;;;;;;;0.00;0.00;;;;;;;;;;5053559;28;20200;-68
2021/10/09 11:22:12;;;;;;;0.00;0.00;;;;;;;;;;5062606;28;20207;-68
2021/10/09 11:24:39;;;;;;;0.20;0.20;;;;;;;;;;5062703;28;20204;-67
2021/10/09 11:27:07;;;;;;;0.00;0.00;;;;;;;;;;5064368;28;20208;-67
2021/10/09 11:29:33;;;;;;;0.00;0.00;;;;;;;;;;5055712;28;20208;-69
2021/10/09 11:32:01;;;;;;;0.00;0.00;;;;;;;;;;5046622;28;20268;-69
2021/10/09 11:34:27;;;;;;;0.00;0.00;;;;;;;;;;5047404;28;20227;-68
2021/10/09 11:36:53;;;;;;;0.00;0.00;;;;;;;;;;5054266;28;20228;-68
2021/10/09 11:39:22;;;;;;;0.00;0.00;;;;;;;;;;5055256;28;20246;-67
2021/10/09 11:42:00;;;;;;;0.00;0.00;;;;;;;;;;5059916;28;20223;-68
2021/10/09 11:44:32;;;;;;;0.00;0.00;;;;;;;;;;5057486;28;20201;-68
2021/10/09 11:47:19;;;;;;;0.00;0.00;;;;;;;;;;5056671;28;20243;-68
2021/10/09 11:55:30;;;;;;;0.00;0.00;;;;;;;;;;5050871;28;20250;-69
2021/10/09 11:57:57;;;;;;;0.00;0.00;;;;;;;;;;5051129;28;20430;-69
2021/10/09 12:00:40;;;;;;;0.00;0.00;;;;;;;;;;5055222;28;20208;-70
2021/10/09 12:03:25;;;;;;;0.00;0.00;;;;;;;;;;5045754;28;20232;-67
2021/10/09 12:05:52;;;;;;;0.00;0.00;;;;;;;;;;5055518;28;20273;-68
2021/10/09 12:08:23;;;;;;;0.00;0.00;;;;;;;;;;5052259;28;20232;-69
2021/10/09 12:11:04;;;;;;;0.20;0.20;;;;;;;;;;5048587;28;20298;-68
2021/10/09 12:13:30;;;;;;;0.10;0.10;;;;;;;;;;5047750;28;20257;-68
2021/10/09 12:16:08;;;;;;;0.00;0.00;;;;;;;;;;5056280;28;20208;-68
2021/10/09 12:18:44;;;;;;;0.00;0.00;;;;;;;;;;5054268;28;20218;-72
2021/10/09 12:21:11;;;;;;;0.10;0.10;;;;;;;;;;5056387;28;20204;-73
2021/10/09 12:23:37;;;;;;;0.05;0.05;;;;;;;;;;5057523;28;20257;-74
2021/10/09 12:26:10;;;;;;;0.10;0.10;;;;;;;;;;5058882;28;20258;-75
2021/10/09 12:28:59;;;;;;;0.30;0.30;;;;;;;;;;5050244;28;20240;-78
2021/10/09 12:31:30;;;;;;;0.00;0.00;;;;;;;;;;5060692;28;20504;-78
2021/10/09 12:33:56;;;;;;;0.10;0.10;;;;;;;;;;5056169;28;20229;-77
2021/10/09 12:36:31;;;;;;;0.08;0.08;;;;;;;;;;5055727;28;20502;-74
2021/10/09 12:38:57;;;;;;;0.00;0.00;;;;;;;;;;5056042;28;20197;-64
2021/10/09 12:41:23;;;;;;;0.10;0.10;;;;;;;;;;5060419;28;20244;-66
2021/10/09 12:43:52;;;;;;;0.00;0.00;;;;;;;;;;5059824;28;20501;-64
2021/10/09 12:46:20;;;;;;;0.00;0.00;;;;;;;;;;5045098;28;20260;-70
2021/10/09 12:48:48;;;;;;;0.10;0.10;;;;;;;;;;5058921;28;20233;-64
2021/10/09 12:51:14;;;;;;;0.08;0.08;;;;;;;;;;5062026;28;20516;-64
2021/10/09 12:53:40;;;;;;;0.43;0.43;;;;;;;;;;5061047;28;20206;-65
2021/10/09 12:56:06;;;;;;;0.10;0.10;;;;;;;;;;5061122;28;20528;-64
2021/10/09 12:58:32;;;;;;;0.10;0.10;;;;;;;;;;5064036;28;20263;-64
2021/10/09 13:00:59;;;;;;;0.10;0.10;;;;;;;;;;5060128;28;20201;-64
2021/10/09 13:03:25;;;;;;;0.00;0.00;;;;;;;;;;5058191;28;20303;-64
2021/10/09 13:05:52;;;;;;;0.00;0.00;;;;;;;;;;5064717;28;20202;-64
2021/10/09 13:08:18;;;;;;;0.00;0.00;;;;;;;;;;5064737;28;20205;-63
2021/10/09 13:10:48;;;;;;;0.10;0.10;;;;;;;;;;5057265;28;20453;-64
2021/10/09 13:13:14;;;;;;;0.05;0.05;;;;;;;;;;5058619;28;20236;-63
2021/10/09 13:15:40;;;;;;;0.00;0.00;;;;;;;;;;5055936;28;20215;-66
2021/10/09 13:18:07;;;;;;;0.10;0.10;;;;;;;;;;5055465;28;20278;-64
2021/10/09 13:20:36;;;;;;;0.08;0.08;;;;;;;;;;5056412;28;20210;-67
2021/10/09 13:23:04;;;;;;;0.10;0.10;;;;;;;;;;5058266;28;20205;-68
2021/10/09 13:25:30;;;;;;;0.10;0.10;;;;;;;;;;5053192;28;20235;-64
2021/10/09 13:27:56;;;;;;;0.00;0.00;;;;;;;;;;5057430;28;20203;-65
2021/10/09 13:30:23;;;;;;;0.03;0.03;;;;;;;;;;5056533;28;20205;-64
2021/10/09 13:32:49;;;;;;;0.10;0.10;;;;;;;;;;5050231;28;20251;-65
2021/10/09 13:35:15;;;;;;;0.00;0.00;;;;;;;;;;5054687;28;20204;-66
2021/10/09 13:37:47;;;;;;;0.10;0.10;;;;;;;;;;5044754;28;20233;-64
2021/10/09 13:40:15;;;;;;;0.08;0.08;;;;;;;;;;5052781;28;20440;-64
2021/10/09 13:42:41;;;;;;;0.10;0.10;;;;;;;;;;5048667;28;20324;-65
2021/10/09 13:45:08;;;;;;;0.00;0.00;;;;;;;;;;5044312;28;20209;-65
2021/10/09 13:47:35;;;;;;;0.10;0.10;;;;;;;;;;5056480;28;20223;-65
2021/10/09 13:50:01;;;;;;;0.05;0.05;;;;;;;;;;5062711;28;20546;-65
2021/10/09 13:52:27;;;;;;;0.00;0.00;;;;;;;;;;5063332;28;20498;-64
2021/10/09 13:54:53;;;;;;;0.10;0.10;;;;;;;;;;5061558;28;20202;-64
2021/10/09 13:57:21;;;;;;;0.08;0.08;;;;;;;;;;5059667;28;20229;-64
2021/10/09 13:59:47;;;;;;;0.10;0.10;;;;;;;;;;5050502;28;20208;-65
2021/10/09 14:02:14;;;;;;;2.25;2.20;;;;;;;;;;5053524;28;20334;-63
2021/10/09 14:04:40;;;;;;;0.03;0.03;;;;;;;;;;5046815;28;20232;-65
2021/10/09 14:07:07;;;;;;;0.10;0.10;;;;;;;;;;5052261;28;20202;-65
2021/10/09 14:09:33;;;;;;;0.10;0.10;;;;;;;;;;5047369;28;20286;-65
2021/10/09 14:12:00;;;;;;;0.10;0.10;;;;;;;;;;5050036;28;20258;-64
2021/10/09 14:14:28;;;;;;;0.10;0.10;;;;;;;;;;5055433;28;20228;-65
2021/10/09 14:16:55;;;;;;;0.00;0.00;;;;;;;;;;5062417;28;20210;-63
2021/10/09 14:19:21;;;;;;;0.05;0.05;;;;;;;;;;5050075;28;20204;-63
2021/10/09 14:21:48;;;;;;;0.10;0.10;;;;;;;;;;5048121;28;20210;-64
2021/10/09 14:24:16;;;;;;;0.10;0.10;;;;;;;;;;5054924;28;20394;-64
2021/10/09 14:26:42;;;;;;;0.03;0.03;;;;;;;;;;5059112;28;20205;-63
2021/10/09 14:29:09;;;;;;;0.05;0.05;;;;;;;;;;5055314;28;20244;-66
2021/10/09 14:31:36;;;;;;;0.08;0.08;;;;;;;;;;5055201;28;20202;-65
2021/10/09 14:34:03;;;;;;;0.10;0.10;;;;;;;;;;5061954;28;20200;-63
2021/10/09 14:36:29;;;;;;;0.10;0.10;;;;;;;;;;5057852;28;20204;-64
2021/10/09 14:38:55;;;;;;;2.05;1.95;;;;;;;;;;5058049;28;20239;-64
2021/10/09 14:41:22;;;;;;;0.00;0.00;;;;;;;;;;5053054;28;20271;-63
2021/10/09 14:43:48;;;;;;;0.10;0.10;;;;;;;;;;5048612;28;20201;-64
2021/10/09 14:49:14;;;;;;;0.10;0.10;;;;;;;;;;4993243;28;20550;-65
2021/10/09 14:51:45;;;;;;;0.10;0.10;;;;;;;;;;5033265;28;20217;-65
2021/10/09 14:54:44;;;;;;;0.10;0.10;;;;;;;;;;5056420;28;20259;-76
2021/10/09 15:16:46;;;;;;;0.10;0.10;;;;;;;;;;5050640;28;20203;-76
2021/10/09 15:19:13;;;;;;;0.05;0.05;;;;;;;;;;5053410;28;20243;-77
2021/10/09 15:21:40;;;;;;;0.00;0.00;;;;;;;;;;5051626;28;20205;-76
2021/10/09 15:24:07;;;;;;;0.10;0.10;;;;;;;;;;5050006;28;20499;-77
2021/10/09 15:26:33;;;;;;;0.00;0.00;;;;;;;;;;5055997;28;20208;-76
2021/10/09 15:28:59;;;;;;;0.10;0.10;;;;;;;;;;5049785;28;20208;-76
2021/10/09 15:31:26;;;;;;;0.10;0.10;;;;;;;;;;5054535;28;20298;-77
2021/10/09 15:33:52;;;;;;;0.03;0.03;;;;;;;;;;5046402;28;20271;-75
2021/10/09 15:36:18;;;;;;;0.10;0.10;;;;;;;;;;5056773;28;20207;-74
2021/10/09 15:38:46;;;;;;;0.10;0.10;;;;;;;;;;5052536;28;20264;-76
2021/10/09 15:41:12;;;;;;;0.10;0.10;;;;;;;;;;5054582;28;20279;-76
2021/10/09 15:43:39;;;;;;;0.10;0.10;;;;;;;;;;5057756;28;20544;-74
2021/10/09 15:46:05;;;;;;;0.10;0.10;;;;;;;;;;5052381;28;20223;-75
2021/10/09 15:48:31;;;;;;;0.00;0.00;;;;;;;;;;5048380;28;20204;-77
2021/10/09 15:50:57;;;;;;;0.00;0.00;;;;;;;;;;5047563;28;20245;-76
2021/10/09 15:53:23;;;;;;;0.10;0.10;;;;;;;;;;5047464;28;20204;-76
2021/10/09 15:55:51;;;;;;;0.00;0.00;;;;;;;;;;5055941;28;20212;-77
2021/10/09 15:58:17;;;;;;;0.10;0.10;;;;;;;;;;5054972;28;20329;-78
2021/10/09 16:00:43;;;;;;;0.10;0.10;;;;;;;;;;5055068;28;20246;-73
2021/10/09 16:03:10;;;;;;;0.00;0.00;;;;;;;;;;5044988;28;20226;-77
2021/10/09 16:05:36;;;;;;;0.00;0.00;;;;;;;;;;5049368;28;20200;-79
2021/10/09 16:08:02;;;;;;;0.10;0.10;;;;;;;;;;5050377;28;20309;-78
2021/10/09 16:10:28;;;;;;;0.10;0.10;;;;;;;;;;5047491;28;20208;-76
2021/10/09 16:12:56;;;;;;;0.10;0.10;;;;;;;;;;5051716;28;20199;-76
2021/10/09 16:15:22;;;;;;;0.10;0.10;;;;;;;;;;5046561;28;20217;-78
2021/10/09 16:17:49;;;;;;;0.10;0.10;;;;;;;;;;5057958;28;20532;-76
2021/10/09 16:20:15;;;;;;;0.03;0.03;;;;;;;;;;5062444;28;20209;-76
2021/10/09 16:22:41;;;;;;;0.10;0.10;;;;;;;;;;5054446;28;20214;-77
2021/10/09 16:25:08;;;;;;;0.10;0.10;;;;;;;;;;5054725;28;20205;-75
2021/10/09 16:27:35;;;;;;;0.10;0.10;;;;;;;;;;5053495;28;20210;-77
2021/10/09 16:30:02;;;;;;;0.10;0.10;;;;;;;;;;5052942;28;20247;-77
2021/10/09 16:32:29;;;;;;;0.10;0.10;;;;;;;;;;5054508;28;20233;-75
2021/10/09 16:34:55;;;;;;;0.10;0.10;;;;;;;;;;5058869;28;20207;-75
2021/10/09 16:37:21;;;;;;;0.10;0.10;;;;;;;;;;5058339;28;20205;-75
2021/10/09 16:39:47;;;;;;;0.10;0.10;;;;;;;;;;5061117;28;20319;-74
2021/10/09 16:42:14;;;;;;;0.10;0.10;;;;;;;;;;5057084;28;20305;-74
2021/10/09 16:44:40;;;;;;;0.10;0.10;;;;;;;;;;5061339;28;20207;-76
2021/10/09 16:47:08;;;;;;;0.03;0.03;;;;;;;;;;5051257;28;20206;-75
2021/10/09 16:49:35;;;;;;;0.10;0.10;;;;;;;;;;5054267;28;20530;-75
2021/10/09 16:52:01;;;;;;;0.10;0.10;;;;;;;;;;5062773;28;20212;-65
2021/10/09 16:54:28;;;;;;;0.10;0.10;;;;;;;;;;5045685;28;20210;-68
2021/10/09 16:56:54;;;;;;;0.73;0.73;;;;;;;;;;5057168;28;20262;-68
2021/10/09 16:59:20;;;;;;;0.10;0.10;;;;;;;;;;5052275;28;20225;-70